createdAt,value
2024-02-11T00:02:42.137Z,8.03
2024-02-11T00:06:02.074Z,8.23
2024-02-11T00:09:23.913Z,7.53
2024-02-11T00:12:44.172Z,7.05
2024-02-11T00:16:04.243Z,7.10
2024-02-11T00:19:24.035Z,6.60
2024-02-11T00:22:46.233Z,8.30
2024-02-11T00:25:58.331Z,7.95
2024-02-11T00:29:02.163Z,7.88
2024-02-11T00:32:19.754Z,6.70
2024-02-11T00:35:43.063Z,7.03
2024-02-11T00:38:46.046Z,7.45
2024-02-11T00:42:11.942Z,6.80
2024-02-11T00:45:43.171Z,6.47
2024-02-11T00:48:58.930Z,6.93
2024-02-11T00:52:27.712Z,6.33
2024-02-11T00:55:50.876Z,6.40
2024-02-11T00:59:12.790Z,6.35
2024-02-11T01:02:35.631Z,6.38
2024-02-11T01:05:53.460Z,6.03
2024-02-11T01:09:13.865Z,6.40
2024-02-11T01:12:50.929Z,5.22
2024-02-11T01:16:05.811Z,6.18
2024-02-11T01:19:27.791Z,4.60
2024-02-11T01:22:49.886Z,5.15
2024-02-11T01:26:12.840Z,4.87
2024-02-11T01:29:40.677Z,4.53
2024-02-11T01:32:58.938Z,4.65
2024-02-11T01:36:14.815Z,4.80
2024-02-11T01:39:32.919Z,4.60
2024-02-11T01:42:56.907Z,4.37
2024-02-11T01:46:11.680Z,4.20
2024-02-11T01:49:34.826Z,4.57
2024-02-11T01:53:08.882Z,4.00
2024-02-11T01:56:33.738Z,4.03
2024-02-11T01:59:56.946Z,4.17
2024-02-11T02:03:18.293Z,3.90
2024-02-11T02:06:39.799Z,3.97
2024-02-11T02:10:02.852Z,4.00
2024-02-11T02:13:22.770Z,3.85
2024-02-11T02:16:45.508Z,3.90
2024-02-11T02:20:01.977Z,3.85
2024-02-11T02:23:21.856Z,3.63
2024-02-11T02:26:45.711Z,3.70
2024-02-11T02:30:05.787Z,4.00
2024-02-11T02:33:12.103Z,4.00
2024-02-11T02:36:18.820Z,3.75
2024-02-11T02:39:39.340Z,3.80
2024-02-11T02:43:04.703Z,4.07
2024-02-11T02:46:23.024Z,3.85
2024-02-11T02:49:39.622Z,4.03
2024-02-11T02:53:05.359Z,4.40
2024-02-11T02:56:25.456Z,4.00
2024-02-11T02:59:48.557Z,4.93
2024-02-11T03:03:13.454Z,4.25
2024-02-11T03:06:36.426Z,4.40
2024-02-11T03:09:55.348Z,4.35
2024-02-11T03:13:05.264Z,4.32
2024-02-11T03:16:28.587Z,4.13
2024-02-11T03:20:02.571Z,4.22
2024-02-11T03:23:26.464Z,4.27
2024-02-11T03:26:42.711Z,3.83
2024-02-11T03:30:02.529Z,4.18
2024-02-11T03:33:32.653Z,4.07
2024-02-11T03:36:59.459Z,4.35
2024-02-11T03:40:23.454Z,3.87
2024-02-11T03:43:46.486Z,3.70
2024-02-11T03:47:09.456Z,3.78
2024-02-11T03:50:32.580Z,4.03
2024-02-11T03:53:48.625Z,3.65
2024-02-11T03:57:11.744Z,3.27
2024-02-11T04:00:35.443Z,3.67
2024-02-11T04:03:58.454Z,3.70
2024-02-11T04:07:24.458Z,4.00
2024-02-11T04:10:44.557Z,4.18
2024-02-11T04:14:00.845Z,4.00
2024-02-11T04:17:20.486Z,3.85
2024-02-11T04:20:48.467Z,3.83
2024-02-11T04:24:10.636Z,3.90
2024-02-11T04:27:27.547Z,4.10
2024-02-11T04:30:56.533Z,4.00
2024-02-11T04:34:12.469Z,4.40
2024-02-11T04:37:29.586Z,4.25
2024-02-11T04:41:01.385Z,4.40
2024-02-11T04:44:16.276Z,4.50
2024-02-11T04:47:39.488Z,4.27
2024-02-11T04:51:03.501Z,4.50
2024-02-11T04:54:23.317Z,4.43
2024-02-11T04:57:46.418Z,4.57
2024-02-11T05:01:03.600Z,5.13
2024-02-11T05:04:08.857Z,4.87
2024-02-11T05:07:13.809Z,4.60
2024-02-11T05:10:33.324Z,4.75
2024-02-11T05:13:58.296Z,5.13
2024-02-11T05:17:03.659Z,5.22
2024-02-11T05:20:19.605Z,5.50
2024-02-11T05:23:55.320Z,5.18
2024-02-11T05:27:20.013Z,5.78
2024-02-11T05:30:43.667Z,5.22
2024-02-11T05:34:09.341Z,5.05
2024-02-11T05:37:31.092Z,9.23
2024-02-11T05:40:55.112Z,6.05
2024-02-11T05:44:18.303Z,5.60
2024-02-11T05:47:38.418Z,5.80
2024-02-11T05:50:52.928Z,6.00
2024-02-11T05:53:56.260Z,6.27
2024-02-11T05:57:00.059Z,6.25
2024-02-11T06:00:20.671Z,6.13
2024-02-11T06:03:43.255Z,6.05
2024-02-11T06:07:07.156Z,5.90
2024-02-11T06:10:43.228Z,6.13
2024-02-11T06:14:19.229Z,5.90
2024-02-11T06:17:56.227Z,6.25
2024-02-11T06:21:24.076Z,6.30
2024-02-11T06:24:46.066Z,5.93
2024-02-11T06:28:03.253Z,5.73
2024-02-11T06:31:23.187Z,6.40
2024-02-11T06:34:53.096Z,5.88
2024-02-11T06:38:14.158Z,5.38
2024-02-11T06:41:37.070Z,5.65
2024-02-11T06:44:57.224Z,5.57
2024-02-11T06:48:13.329Z,5.40
2024-02-11T06:51:33.018Z,5.18
2024-02-11T06:55:02.151Z,5.40
2024-02-11T06:58:19.244Z,5.07
2024-02-11T07:01:44.196Z,5.87
2024-02-11T07:05:08.201Z,5.63
2024-02-11T07:08:29.135Z,5.60
2024-02-11T07:11:49.983Z,5.53
2024-02-11T07:15:07.443Z,5.68
2024-02-11T07:18:30.111Z,6.10
2024-02-11T07:21:51.997Z,6.32
2024-02-11T07:25:13.070Z,5.85
2024-02-11T07:28:21.271Z,5.70
2024-02-11T07:31:25.288Z,6.25
2024-02-11T07:34:42.189Z,5.97
2024-02-11T07:37:59.985Z,5.80
2024-02-11T07:41:28.773Z,6.40
2024-02-11T07:44:51.875Z,6.60
2024-02-11T07:48:13.852Z,6.25
2024-02-11T07:51:36.920Z,6.03
2024-02-11T07:54:59.703Z,5.85
2024-02-11T07:58:22.929Z,6.03
2024-02-11T08:01:44.880Z,5.93
2024-02-11T08:04:47.991Z,6.20
2024-02-11T08:07:53.609Z,5.87
2024-02-11T08:11:04.621Z,6.13
2024-02-11T08:14:08.558Z,5.68
2024-02-11T08:17:16.344Z,5.05
2024-02-11T08:20:24.531Z,6.05
2024-02-11T08:23:41.744Z,5.80
2024-02-11T08:27:03.064Z,6.45
2024-02-11T08:30:27.851Z,6.28
2024-02-11T08:33:47.598Z,7.15
2024-02-11T08:36:58.837Z,7.18
2024-02-11T08:40:27.886Z,8.40
2024-02-11T08:43:54.796Z,7.43
2024-02-11T08:47:18.969Z,6.93
2024-02-11T08:50:39.750Z,6.90
2024-02-11T08:53:43.131Z,7.07
2024-02-11T08:56:46.757Z,6.13
2024-02-11T08:59:49.849Z,6.70
2024-02-11T09:03:05.751Z,6.72
2024-02-11T09:06:30.331Z,6.50
2024-02-11T09:09:52.718Z,5.88
2024-02-11T09:13:15.803Z,6.17
2024-02-11T09:16:27.908Z,5.93
2024-02-11T09:19:38.197Z,6.57
2024-02-11T09:22:44.554Z,6.60
2024-02-11T09:29:07.714Z,6.33
2024-02-11T09:32:27.850Z,6.20
2024-02-11T09:35:53.963Z,6.25
2024-02-11T09:38:57.994Z,6.40
2024-02-11T09:42:08.403Z,5.80
2024-02-11T09:45:29.524Z,6.10
2024-02-11T09:48:51.507Z,6.50
2024-02-11T09:52:14.488Z,6.43
2024-02-11T09:55:35.551Z,6.20
2024-02-11T09:58:58.468Z,6.85
2024-02-11T10:02:22.741Z,6.63
2024-02-11T10:05:39.773Z,6.10
2024-02-11T10:09:00.573Z,6.55
2024-02-11T10:12:20.719Z,6.60
2024-02-11T10:15:46.531Z,6.25
2024-02-11T10:19:07.563Z,6.03
2024-02-11T10:22:36.496Z,6.20
2024-02-11T10:25:58.559Z,6.20
2024-02-11T10:29:20.580Z,5.40
2024-02-11T10:32:37.613Z,6.60
2024-02-11T10:35:51.248Z,6.80
2024-02-11T10:39:14.570Z,6.35
2024-02-11T10:42:49.576Z,7.05
2024-02-11T10:46:13.465Z,6.43
2024-02-11T10:49:34.465Z,6.82
2024-02-11T10:52:51.755Z,6.73
2024-02-11T10:56:02.410Z,7.22
2024-02-11T10:59:22.260Z,6.97
2024-02-11T11:02:47.457Z,6.90
2024-02-11T11:06:26.558Z,6.70
2024-02-11T11:09:50.520Z,7.10
2024-02-11T11:13:10.566Z,6.22
2024-02-11T11:16:31.803Z,6.18
2024-02-11T11:19:51.627Z,6.63
2024-02-11T11:23:08.102Z,6.70
2024-02-11T11:26:29.511Z,6.10
2024-02-11T11:30:00.559Z,6.40
2024-02-11T11:33:07.545Z,7.57
2024-02-11T11:36:11.285Z,6.10
2024-02-11T11:39:20.660Z,8.18
2024-02-11T11:42:30.034Z,6.73
2024-02-11T11:46:07.141Z,6.43
2024-02-11T11:49:29.117Z,6.60
2024-02-11T11:52:51.110Z,6.82
2024-02-11T11:56:13.154Z,5.70
2024-02-11T11:59:36.370Z,6.17
2024-02-11T12:03:04.048Z,6.15
2024-02-11T12:06:25.155Z,6.88
2024-02-11T12:09:43.061Z,6.47
2024-02-11T12:13:06.308Z,6.32
2024-02-11T12:16:32.135Z,7.37
2024-02-11T12:19:51.078Z,7.20
2024-02-11T12:23:12.257Z,7.25
2024-02-11T12:26:21.597Z,6.55
2024-02-11T12:29:37.525Z,6.53
2024-02-11T12:32:59.941Z,6.23
2024-02-11T12:36:30.210Z,6.13
2024-02-11T12:40:02.280Z,5.80
2024-02-11T12:43:23.350Z,5.22
2024-02-11T12:46:44.318Z,4.90
2024-02-11T12:50:11.170Z,5.10
2024-02-11T12:53:33.153Z,5.25
2024-02-11T12:56:53.246Z,5.32
2024-02-11T13:00:10.991Z,6.65
2024-02-11T13:03:34.255Z,6.68
2024-02-11T13:07:01.207Z,6.43
2024-02-11T13:10:24.202Z,5.93
2024-02-11T13:13:47.183Z,5.25
2024-02-11T13:17:03.306Z,5.30
2024-02-11T13:20:23.460Z,5.38
2024-02-11T13:23:46.280Z,5.57
2024-02-11T13:27:09.124Z,5.47
2024-02-11T13:30:36.148Z,5.78
2024-02-11T13:33:47.159Z,4.70
2024-02-11T13:37:10.102Z,5.22
2024-02-11T13:40:37.097Z,5.87
2024-02-11T13:44:01.245Z,5.05
2024-02-11T13:47:21.132Z,5.50
2024-02-11T13:50:41.091Z,5.18
2024-02-11T13:53:44.340Z,4.60
2024-02-11T13:56:51.144Z,4.70
2024-02-11T13:59:54.460Z,4.78
2024-02-11T14:03:11.052Z,5.10
2024-02-11T14:06:41.559Z,4.85
2024-02-11T14:10:14.041Z,4.70
2024-02-11T14:13:38.862Z,4.43
2024-02-11T14:16:59.796Z,3.95
2024-02-11T14:20:23.195Z,4.50
2024-02-11T14:23:47.744Z,4.32
2024-02-11T14:27:09.748Z,4.32
2024-02-11T14:30:31.761Z,4.20
2024-02-11T14:33:52.910Z,3.95
2024-02-11T14:37:14.932Z,4.63
2024-02-11T14:40:37.931Z,4.40
2024-02-11T14:43:59.742Z,4.05
2024-02-11T14:47:20.877Z,4.30
2024-02-11T14:50:27.977Z,4.30
2024-02-11T14:53:33.505Z,3.55
2024-02-11T14:56:47.332Z,3.20
2024-02-11T15:00:03.974Z,3.63
2024-02-11T15:03:27.927Z,3.17
2024-02-11T15:06:37.469Z,2.80
2024-02-11T15:09:45.252Z,2.65
2024-02-11T15:12:51.520Z,2.65
2024-02-11T15:16:07.077Z,2.42
2024-02-11T15:19:23.986Z,1.97
2024-02-11T15:22:45.922Z,1.90
2024-02-11T15:26:07.886Z,1.50
2024-02-11T15:29:30.891Z,1.70
2024-02-11T15:32:52.970Z,1.73
2024-02-11T15:36:14.150Z,1.80
2024-02-11T15:39:36.822Z,2.33
2024-02-11T15:42:54.686Z,2.55
2024-02-11T15:46:12.932Z,1.95
2024-02-11T15:49:36.790Z,1.80
2024-02-11T15:52:59.812Z,1.33
2024-02-11T15:56:23.935Z,1.65
2024-02-11T15:59:43.776Z,1.90
2024-02-11T16:03:06.792Z,2.15
2024-02-11T16:06:26.810Z,2.03
2024-02-11T16:09:42.947Z,1.67
2024-02-11T16:13:02.749Z,2.10
2024-02-11T16:16:22.730Z,2.22
2024-02-11T16:19:32.007Z,2.05
2024-02-11T16:22:43.785Z,2.28
2024-02-11T16:26:00.596Z,2.60
2024-02-11T16:29:14.634Z,2.30
2024-02-11T16:32:38.133Z,2.30
2024-02-11T16:36:04.852Z,2.33
2024-02-11T16:39:27.751Z,2.70
2024-02-11T16:42:52.557Z,2.33
2024-02-11T16:46:16.469Z,2.25
2024-02-11T16:49:35.503Z,2.72
2024-02-11T16:52:56.441Z,2.63
2024-02-11T16:56:19.536Z,2.80
2024-02-11T16:59:42.606Z,3.90
2024-02-11T17:03:02.964Z,3.63
2024-02-11T17:06:15.937Z,2.88
2024-02-11T17:09:33.615Z,2.58
2024-02-11T17:12:56.233Z,2.13
2024-02-11T17:16:12.763Z,2.63
2024-02-11T17:19:41.626Z,2.40
2024-02-11T17:23:17.687Z,2.40
2024-02-11T17:26:42.568Z,2.40
2024-02-11T17:29:59.952Z,2.50
2024-02-11T17:33:17.714Z,2.40
2024-02-11T17:36:41.677Z,3.13
2024-02-11T17:40:02.535Z,2.83
2024-02-11T17:43:33.666Z,3.70
2024-02-11T17:46:54.617Z,2.60
2024-02-11T17:50:16.155Z,2.67
2024-02-11T17:53:46.941Z,3.00
2024-02-11T17:57:04.642Z,3.05
2024-02-11T18:00:25.592Z,3.22
2024-02-11T18:03:44.656Z,3.30
2024-02-11T18:07:05.665Z,3.73
2024-02-11T18:10:25.603Z,3.47
2024-02-11T18:13:45.532Z,3.63
2024-02-11T18:17:09.518Z,4.20
2024-02-11T18:20:31.527Z,3.67
2024-02-11T18:23:51.526Z,3.90
2024-02-11T18:27:14.573Z,4.30
2024-02-11T18:30:37.117Z,4.05
2024-02-11T18:33:58.664Z,4.10
2024-02-11T18:37:24.552Z,4.07
2024-02-11T18:40:37.737Z,3.90
2024-02-11T18:43:42.392Z,3.40
2024-02-11T18:46:54.367Z,3.33
2024-02-11T18:50:11.030Z,3.42
2024-02-11T18:53:29.413Z,10.93
2024-02-11T18:56:46.103Z,2.43
2024-02-11T18:59:49.481Z,1.30
2024-02-11T19:03:15.513Z,1.10
2024-02-11T19:06:39.190Z,1.40
2024-02-11T19:09:43.882Z,1.30
2024-02-11T19:12:47.047Z,2.77
2024-02-11T19:16:00.579Z,1.90
2024-02-11T19:19:08.194Z,1.50
2024-02-11T19:22:17.477Z,1.75
2024-02-11T19:25:32.572Z,1.33
2024-02-11T19:28:56.309Z,1.37
2024-02-11T19:32:13.231Z,1.70
2024-02-11T19:35:29.616Z,1.40
2024-02-11T19:38:40.557Z,1.45
2024-02-11T19:41:58.038Z,1.40
2024-02-11T19:45:27.232Z,1.83
2024-02-11T19:48:58.392Z,1.60
2024-02-11T19:52:24.236Z,1.80
2024-02-11T19:55:40.374Z,1.50
2024-02-11T19:59:02.854Z,3.38
2024-02-11T20:02:27.675Z,1.90
2024-02-11T20:05:43.307Z,2.15
2024-02-11T20:09:11.158Z,1.70
2024-02-11T20:12:36.261Z,1.70
2024-02-11T20:15:58.247Z,2.67
2024-02-11T20:19:19.269Z,2.10
2024-02-11T20:22:35.346Z,2.00
2024-02-11T20:25:55.353Z,2.60
2024-02-11T20:29:22.950Z,2.83
2024-02-11T20:32:40.271Z,2.70
2024-02-11T20:35:56.478Z,3.57
2024-02-11T20:39:23.354Z,3.08
2024-02-11T20:42:47.116Z,3.42
2024-02-11T20:46:07.191Z,2.85
2024-02-11T20:49:30.161Z,3.22
2024-02-11T20:52:54.156Z,2.30
2024-02-11T20:56:14.173Z,2.50
2024-02-11T20:59:34.196Z,2.80
2024-02-11T21:02:54.197Z,3.00
2024-02-11T21:06:14.193Z,2.97
2024-02-11T21:09:22.054Z,3.03
2024-02-11T21:12:29.381Z,2.92
2024-02-11T21:15:45.748Z,3.25
2024-02-11T21:19:14.879Z,2.80
2024-02-11T21:22:35.842Z,3.03
2024-02-11T21:25:57.816Z,2.80
2024-02-11T21:29:19.815Z,3.20
2024-02-11T21:32:42.042Z,3.22
2024-02-11T21:36:02.814Z,3.80
2024-02-11T21:39:26.033Z,3.30
2024-02-11T21:42:51.302Z,3.20
2024-02-11T21:46:10.882Z,3.42
2024-02-11T21:49:28.448Z,3.28
2024-02-11T21:52:50.137Z,3.40
2024-02-11T21:56:17.086Z,3.03
2024-02-11T21:59:39.894Z,3.10
2024-02-11T22:02:56.833Z,2.90
2024-02-11T22:06:20.135Z,3.30
2024-02-11T22:09:40.939Z,3.05
2024-02-11T22:13:01.872Z,3.20
2024-02-11T22:16:31.894Z,3.27
2024-02-11T22:19:55.933Z,3.20
2024-02-11T22:23:13.234Z,3.15
2024-02-11T22:26:29.827Z,3.10
2024-02-11T22:29:52.944Z,3.10
2024-02-11T22:33:23.047Z,2.97
2024-02-11T22:36:40.411Z,3.20
2024-02-11T22:40:02.821Z,3.20
2024-02-11T22:43:24.792Z,3.30
2024-02-11T22:46:44.882Z,3.03
2024-02-11T22:50:06.007Z,3.07
2024-02-11T22:53:25.966Z,3.10
2024-02-11T22:56:45.920Z,3.22
2024-02-11T23:00:08.942Z,3.38
2024-02-11T23:03:26.926Z,3.55
2024-02-11T23:06:30.505Z,3.50
2024-02-11T23:09:33.907Z,3.60
2024-02-11T23:12:56.709Z,2.97
2024-02-11T23:16:22.519Z,2.80
2024-02-11T23:19:32.662Z,3.22
2024-02-11T23:22:43.359Z,3.33
2024-02-11T23:25:47.525Z,3.85
2024-02-11T23:29:04.086Z,3.70
2024-02-11T23:32:11.334Z,4.53
2024-02-11T23:35:18.362Z,3.40
2024-02-11T23:38:21.944Z,2.83
2024-02-11T23:41:37.843Z,3.13
2024-02-11T23:44:59.778Z,3.70
2024-02-11T23:48:22.978Z,4.32
2024-02-11T23:51:47.840Z,3.90
2024-02-11T23:55:08.825Z,3.53
2024-02-11T23:58:30.721Z,3.53
